sensor_id;sensor_type;location;lat;lon;timestamp;P1;durP1;ratioP1;P2;durP2;ratioP2
3149;SDS011;32503;47.748;8.960;2023-03-23T00:01:06;5.43;;;5.03;;
3149;SDS011;32503;47.748;8.960;2023-03-23T00:03:37;8.20;;;5.80;;
3149;SDS011;32503;47.748;8.960;2023-03-23T00:06:05;5.03;;;4.63;;
3149;SDS011;32503;47.748;8.960;2023-03-23T00:08:34;4.77;;;4.47;;
3149;SDS011;32503;47.748;8.960;2023-03-23T00:11:11;6.03;;;4.73;;
3149;SDS011;32503;47.748;8.960;2023-03-23T00:13:40;5.33;;;4.73;;
3149;SDS011;32503;47.748;8.960;2023-03-23T00:16:09;5.27;;;4.77;;
3149;SDS011;32503;47.748;8.960;2023-03-23T00:18:42;5.30;;;4.80;;
3149;SDS011;32503;47.748;8.960;2023-03-23T00:21:11;6.03;;;5.60;;
3149;SDS011;32503;47.748;8.960;2023-03-23T00:23:38;6.10;;;5.60;;
3149;SDS011;32503;47.748;8.960;2023-03-23T00:26:05;5.50;;;5.07;;
3149;SDS011;32503;47.748;8.960;2023-03-23T00:28:34;5.10;;;4.80;;
3149;SDS011;32503;47.748;8.960;2023-03-23T00:31:05;5.77;;;5.27;;
3149;SDS011;32503;47.748;8.960;2023-03-23T00:33:36;6.20;;;5.70;;
3149;SDS011;32503;47.748;8.960;2023-03-23T00:36:06;5.70;;;5.20;;
3149;SDS011;32503;47.748;8.960;2023-03-23T00:38:38;6.00;;;5.50;;
3149;SDS011;32503;47.748;8.960;2023-03-23T00:41:07;5.63;;;5.13;;
3149;SDS011;32503;47.748;8.960;2023-03-23T00:43:37;4.30;;;4.00;;
3149;SDS011;32503;47.748;8.960;2023-03-23T00:46:04;5.43;;;5.03;;
3149;SDS011;32503;47.748;8.960;2023-03-23T00:48:34;4.97;;;4.50;;
3149;SDS011;32503;47.748;8.960;2023-03-23T00:51:06;5.50;;;5.10;;
3149;SDS011;32503;47.748;8.960;2023-03-23T00:53:36;5.00;;;4.60;;
3149;SDS011;32503;47.748;8.960;2023-03-23T00:56:04;5.67;;;5.23;;
3149;SDS011;32503;47.748;8.960;2023-03-23T00:58:32;4.63;;;4.27;;
3149;SDS011;32503;47.748;8.960;2023-03-23T01:01:01;4.87;;;4.47;;
3149;SDS011;32503;47.748;8.960;2023-03-23T01:03:29;6.13;;;5.63;;
3149;SDS011;32503;47.748;8.960;2023-03-23T01:05:56;4.93;;;4.63;;
3149;SDS011;32503;47.748;8.960;2023-03-23T01:08:23;4.57;;;4.20;;
3149;SDS011;32503;47.748;8.960;2023-03-23T01:10:52;4.60;;;3.53;;
3149;SDS011;32503;47.748;8.960;2023-03-23T01:13:32;4.00;;;3.60;;
3149;SDS011;32503;47.748;8.960;2023-03-23T01:15:59;3.83;;;3.50;;
3149;SDS011;32503;47.748;8.960;2023-03-23T01:18:28;4.30;;;4.10;;
3149;SDS011;32503;47.748;8.960;2023-03-23T01:20:55;4.80;;;4.50;;
3149;SDS011;32503;47.748;8.960;2023-03-23T01:23:22;4.67;;;4.33;;
3149;SDS011;32503;47.748;8.960;2023-03-23T01:25:49;5.47;;;4.93;;
3149;SDS011;32503;47.748;8.960;2023-03-23T01:28:19;4.60;;;4.30;;
3149;SDS011;32503;47.748;8.960;2023-03-23T01:30:46;4.30;;;4.10;;
3149;SDS011;32503;47.748;8.960;2023-03-23T01:33:14;4.90;;;4.70;;
3149;SDS011;32503;47.748;8.960;2023-03-23T01:35:41;5.23;;;4.93;;
3149;SDS011;32503;47.748;8.960;2023-03-23T01:38:09;5.33;;;4.43;;
3149;SDS011;32503;47.748;8.960;2023-03-23T01:40:36;4.00;;;3.70;;
3149;SDS011;32503;47.748;8.960;2023-03-23T01:43:07;4.40;;;4.10;;
3149;SDS011;32503;47.748;8.960;2023-03-23T01:45:39;4.20;;;3.63;;
3149;SDS011;32503;47.748;8.960;2023-03-23T01:48:09;5.07;;;4.77;;
3149;SDS011;32503;47.748;8.960;2023-03-23T01:50:44;4.90;;;4.50;;
3149;SDS011;32503;47.748;8.960;2023-03-23T01:53:20;4.17;;;3.83;;
3149;SDS011;32503;47.748;8.960;2023-03-23T01:55:49;5.17;;;4.77;;
3149;SDS011;32503;47.748;8.960;2023-03-23T01:58:19;4.97;;;4.60;;
3149;SDS011;32503;47.748;8.960;2023-03-23T02:00:52;4.97;;;4.63;;
3149;SDS011;32503;47.748;8.960;2023-03-23T02:03:22;4.37;;;4.00;;
3149;SDS011;32503;47.748;8.960;2023-03-23T02:05:49;4.60;;;4.30;;
3149;SDS011;32503;47.748;8.960;2023-03-23T02:08:18;4.73;;;4.33;;
3149;SDS011;32503;47.748;8.960;2023-03-23T02:10:45;5.53;;;5.10;;
3149;SDS011;32503;47.748;8.960;2023-03-23T02:13:12;5.20;;;4.90;;
3149;SDS011;32503;47.748;8.960;2023-03-23T02:15:45;5.80;;;5.40;;
3149;SDS011;32503;47.748;8.960;2023-03-23T02:18:25;4.70;;;4.30;;
3149;SDS011;32503;47.748;8.960;2023-03-23T02:21:20;4.97;;;4.50;;
3149;SDS011;32503;47.748;8.960;2023-03-23T02:24:20;4.40;;;4.00;;
3149;SDS011;32503;47.748;8.960;2023-03-23T02:30:55;4.93;;;4.50;;
3149;SDS011;32503;47.748;8.960;2023-03-23T02:33:47;4.97;;;4.57;;
3149;SDS011;32503;47.748;8.960;2023-03-23T02:36:20;4.30;;;4.10;;
3149;SDS011;32503;47.748;8.960;2023-03-23T02:38:56;5.03;;;4.70;;
3149;SDS011;32503;47.748;8.960;2023-03-23T02:41:30;5.17;;;4.63;;
3149;SDS011;32503;47.748;8.960;2023-03-23T02:44:02;5.17;;;4.70;;
3149;SDS011;32503;47.748;8.960;2023-03-23T02:46:31;5.10;;;4.70;;
3149;SDS011;32503;47.748;8.960;2023-03-23T02:49:01;5.17;;;4.87;;
3149;SDS011;32503;47.748;8.960;2023-03-23T02:51:32;7.40;;;4.90;;
3149;SDS011;32503;47.748;8.960;2023-03-23T02:54:00;10.60;;;4.80;;
3149;SDS011;32503;47.748;8.960;2023-03-23T02:56:30;6.00;;;4.97;;
3149;SDS011;32503;47.748;8.960;2023-03-23T02:58:59;5.50;;;5.10;;
3149;SDS011;32503;47.748;8.960;2023-03-23T03:04:32;5.53;;;5.00;;
3149;SDS011;32503;47.748;8.960;2023-03-23T03:07:07;5.40;;;5.10;;
3149;SDS011;32503;47.748;8.960;2023-03-23T03:09:58;5.50;;;5.10;;
3149;SDS011;32503;47.748;8.960;2023-03-23T03:12:30;5.30;;;4.90;;
3149;SDS011;32503;47.748;8.960;2023-03-23T03:15:09;8.00;;;4.90;;
3149;SDS011;32503;47.748;8.960;2023-03-23T03:17:45;5.37;;;4.97;;
3149;SDS011;32503;47.748;8.960;2023-03-23T03:20:21;6.37;;;5.87;;
3149;SDS011;32503;47.748;8.960;2023-03-23T03:22:51;5.70;;;4.87;;
3149;SDS011;32503;47.748;8.960;2023-03-23T03:25:19;8.43;;;5.87;;
3149;SDS011;32503;47.748;8.960;2023-03-23T03:27:48;5.93;;;5.50;;
3149;SDS011;32503;47.748;8.960;2023-03-23T03:30:17;5.23;;;4.93;;
3149;SDS011;32503;47.748;8.960;2023-03-23T03:32:52;5.13;;;4.70;;
3149;SDS011;32503;47.748;8.960;2023-03-23T03:35:21;5.30;;;4.80;;
3149;SDS011;32503;47.748;8.960;2023-03-23T03:37:49;5.93;;;5.23;;
3149;SDS011;32503;47.748;8.960;2023-03-23T03:40:18;9.13;;;6.00;;
3149;SDS011;32503;47.748;8.960;2023-03-23T03:42:47;6.60;;;6.00;;
3149;SDS011;32503;47.748;8.960;2023-03-23T03:45:15;7.43;;;5.13;;
3149;SDS011;32503;47.748;8.960;2023-03-23T03:47:44;6.17;;;5.37;;
3149;SDS011;32503;47.748;8.960;2023-03-23T03:50:11;7.83;;;6.17;;
3149;SDS011;32503;47.748;8.960;2023-03-23T03:52:40;5.47;;;4.97;;
3149;SDS011;32503;47.748;8.960;2023-03-23T03:55:07;4.67;;;4.27;;
3149;SDS011;32503;47.748;8.960;2023-03-23T03:57:36;5.77;;;5.30;;
3149;SDS011;32503;47.748;8.960;2023-03-23T04:00:04;5.83;;;5.27;;
3149;SDS011;32503;47.748;8.960;2023-03-23T04:02:39;5.20;;;4.70;;
3149;SDS011;32503;47.748;8.960;2023-03-23T04:05:09;5.10;;;4.70;;
3149;SDS011;32503;47.748;8.960;2023-03-23T04:07:36;5.33;;;4.90;;
3149;SDS011;32503;47.748;8.960;2023-03-23T04:10:06;4.50;;;4.30;;
3149;SDS011;32503;47.748;8.960;2023-03-23T04:12:36;5.33;;;4.93;;
3149;SDS011;32503;47.748;8.960;2023-03-23T04:15:03;4.70;;;4.30;;
3149;SDS011;32503;47.748;8.960;2023-03-23T04:17:32;4.27;;;3.97;;
3149;SDS011;32503;47.748;8.960;2023-03-23T04:19:59;4.27;;;4.03;;
3149;SDS011;32503;47.748;8.960;2023-03-23T04:22:31;4.70;;;4.30;;
3149;SDS011;32503;47.748;8.960;2023-03-23T04:24:58;4.17;;;3.97;;
3149;SDS011;32503;47.748;8.960;2023-03-23T04:27:30;3.30;;;3.10;;
3149;SDS011;32503;47.748;8.960;2023-03-23T04:29:57;4.93;;;4.60;;
3149;SDS011;32503;47.748;8.960;2023-03-23T04:32:24;5.57;;;5.10;;
3149;SDS011;32503;47.748;8.960;2023-03-23T04:34:53;4.73;;;4.33;;
3149;SDS011;32503;47.748;8.960;2023-03-23T04:37:22;5.00;;;4.50;;
3149;SDS011;32503;47.748;8.960;2023-03-23T04:39:54;4.33;;;4.03;;
3149;SDS011;32503;47.748;8.960;2023-03-23T04:42:26;4.87;;;4.53;;
3149;SDS011;32503;47.748;8.960;2023-03-23T04:44:56;4.77;;;4.47;;
3149;SDS011;32503;47.748;8.960;2023-03-23T04:47:24;5.13;;;4.73;;
3149;SDS011;32503;47.748;8.960;2023-03-23T04:49:54;5.20;;;4.80;;
3149;SDS011;32503;47.748;8.960;2023-03-23T04:52:22;4.07;;;3.87;;
3149;SDS011;32503;47.748;8.960;2023-03-23T04:54:50;5.20;;;4.80;;
3149;SDS011;32503;47.748;8.960;2023-03-23T04:57:17;5.50;;;5.00;;
3149;SDS011;32503;47.748;8.960;2023-03-23T04:59:44;4.63;;;4.23;;
3149;SDS011;32503;47.748;8.960;2023-03-23T05:02:13;4.20;;;4.00;;
3149;SDS011;32503;47.748;8.960;2023-03-23T05:04:42;5.93;;;5.20;;
3149;SDS011;32503;47.748;8.960;2023-03-23T05:07:10;4.97;;;4.57;;
3149;SDS011;32503;47.748;8.960;2023-03-23T05:09:38;5.73;;;5.23;;
3149;SDS011;32503;47.748;8.960;2023-03-23T05:12:05;4.80;;;4.33;;
3149;SDS011;32503;47.748;8.960;2023-03-23T05:14:35;4.83;;;4.37;;
3149;SDS011;32503;47.748;8.960;2023-03-23T05:17:06;4.60;;;4.30;;
3149;SDS011;32503;47.748;8.960;2023-03-23T05:19:35;7.43;;;5.50;;
3149;SDS011;32503;47.748;8.960;2023-03-23T05:22:03;4.90;;;4.47;;
3149;SDS011;32503;47.748;8.960;2023-03-23T05:24:30;5.77;;;5.27;;
3149;SDS011;32503;47.748;8.960;2023-03-23T05:26:57;27.87;;;18.60;;
3149;SDS011;32503;47.748;8.960;2023-03-23T05:29:25;22.97;;;15.10;;
3149;SDS011;32503;47.748;8.960;2023-03-23T05:31:55;18.03;;;13.27;;
3149;SDS011;32503;47.748;8.960;2023-03-23T05:34:24;18.43;;;10.70;;
3149;SDS011;32503;47.748;8.960;2023-03-23T05:36:55;18.10;;;9.60;;
3149;SDS011;32503;47.748;8.960;2023-03-23T05:39:22;15.13;;;9.40;;
3149;SDS011;32503;47.748;8.960;2023-03-23T05:41:49;15.30;;;10.37;;
3149;SDS011;32503;47.748;8.960;2023-03-23T05:44:17;23.40;;;12.33;;
3149;SDS011;32503;47.748;8.960;2023-03-23T05:46:45;17.07;;;12.53;;
3149;SDS011;32503;47.748;8.960;2023-03-23T05:49:12;18.17;;;12.67;;
3149;SDS011;32503;47.748;8.960;2023-03-23T05:51:41;15.17;;;10.93;;
3149;SDS011;32503;47.748;8.960;2023-03-23T05:54:10;6.70;;;6.20;;
3149;SDS011;32503;47.748;8.960;2023-03-23T05:56:37;5.50;;;5.00;;
3149;SDS011;32503;47.748;8.960;2023-03-23T05:59:04;7.60;;;5.10;;
3149;SDS011;32503;47.748;8.960;2023-03-23T06:01:31;3.40;;;3.20;;
3149;SDS011;32503;47.748;8.960;2023-03-23T06:03:59;5.67;;;5.10;;
3149;SDS011;32503;47.748;8.960;2023-03-23T06:06:26;5.73;;;5.23;;
3149;SDS011;32503;47.748;8.960;2023-03-23T06:08:54;6.30;;;5.63;;
3149;SDS011;32503;47.748;8.960;2023-03-23T06:11:23;5.83;;;5.33;;
3149;SDS011;32503;47.748;8.960;2023-03-23T06:13:50;6.50;;;5.90;;
3149;SDS011;32503;47.748;8.960;2023-03-23T06:16:18;5.50;;;5.00;;
3149;SDS011;32503;47.748;8.960;2023-03-23T06:18:45;5.67;;;5.40;;
3149;SDS011;32503;47.748;8.960;2023-03-23T06:21:13;5.97;;;5.47;;
3149;SDS011;32503;47.748;8.960;2023-03-23T06:23:43;7.50;;;5.50;;
3149;SDS011;32503;47.748;8.960;2023-03-23T06:26:11;5.17;;;4.77;;
3149;SDS011;32503;47.748;8.960;2023-03-23T06:28:42;6.33;;;5.83;;
3149;SDS011;32503;47.748;8.960;2023-03-23T06:31:10;5.60;;;5.10;;
3149;SDS011;32503;47.748;8.960;2023-03-23T06:33:39;5.10;;;4.80;;
3149;SDS011;32503;47.748;8.960;2023-03-23T06:36:07;6.00;;;5.50;;
3149;SDS011;32503;47.748;8.960;2023-03-23T06:38:37;4.57;;;4.17;;
3149;SDS011;32503;47.748;8.960;2023-03-23T06:41:04;5.80;;;5.40;;
3149;SDS011;32503;47.748;8.960;2023-03-23T06:43:31;6.57;;;5.97;;
3149;SDS011;32503;47.748;8.960;2023-03-23T06:46:02;6.40;;;5.87;;
3149;SDS011;32503;47.748;8.960;2023-03-23T06:48:29;5.87;;;5.33;;
3149;SDS011;32503;47.748;8.960;2023-03-23T06:50:57;4.80;;;4.50;;
3149;SDS011;32503;47.748;8.960;2023-03-23T06:53:24;5.70;;;5.20;;
3149;SDS011;32503;47.748;8.960;2023-03-23T06:55:51;5.83;;;5.50;;
3149;SDS011;32503;47.748;8.960;2023-03-23T06:58:18;5.53;;;5.20;;
3149;SDS011;32503;47.748;8.960;2023-03-23T07:00:47;5.53;;;5.10;;
3149;SDS011;32503;47.748;8.960;2023-03-23T07:03:15;6.33;;;5.80;;
3149;SDS011;32503;47.748;8.960;2023-03-23T07:05:45;6.13;;;5.63;;
3149;SDS011;32503;47.748;8.960;2023-03-23T07:08:12;4.40;;;4.10;;
3149;SDS011;32503;47.748;8.960;2023-03-23T07:10:39;6.27;;;5.77;;
3149;SDS011;32503;47.748;8.960;2023-03-23T07:13:07;6.30;;;5.73;;
3149;SDS011;32503;47.748;8.960;2023-03-23T07:15:34;5.53;;;5.00;;
3149;SDS011;32503;47.748;8.960;2023-03-23T07:18:02;5.30;;;5.10;;
3149;SDS011;32503;47.748;8.960;2023-03-23T07:20:30;5.83;;;5.43;;
3149;SDS011;32503;47.748;8.960;2023-03-23T07:22:57;4.53;;;4.20;;
3149;SDS011;32503;47.748;8.960;2023-03-23T07:25:26;6.13;;;5.43;;
3149;SDS011;32503;47.748;8.960;2023-03-23T07:27:53;6.70;;;6.13;;
3149;SDS011;32503;47.748;8.960;2023-03-23T07:30:21;6.77;;;6.17;;
3149;SDS011;32503;47.748;8.960;2023-03-23T07:32:48;4.90;;;4.60;;
3149;SDS011;32503;47.748;8.960;2023-03-23T07:35:15;6.53;;;6.03;;
3149;SDS011;32503;47.748;8.960;2023-03-23T07:37:44;6.47;;;5.87;;
3149;SDS011;32503;47.748;8.960;2023-03-23T07:40:14;4.97;;;4.70;;
3149;SDS011;32503;47.748;8.960;2023-03-23T07:42:43;7.40;;;6.70;;
3149;SDS011;32503;47.748;8.960;2023-03-23T07:45:14;10.20;;;6.10;;
3149;SDS011;32503;47.748;8.960;2023-03-23T07:47:42;14.80;;;6.50;;
3149;SDS011;32503;47.748;8.960;2023-03-23T07:50:09;9.33;;;6.33;;
3149;SDS011;32503;47.748;8.960;2023-03-23T07:52:37;7.23;;;6.53;;
3149;SDS011;32503;47.748;8.960;2023-03-23T07:55:08;5.93;;;5.40;;
3149;SDS011;32503;47.748;8.960;2023-03-23T07:57:42;5.40;;;5.00;;
3149;SDS011;32503;47.748;8.960;2023-03-23T08:00:10;4.90;;;4.57;;
3149;SDS011;32503;47.748;8.960;2023-03-23T08:02:44;5.60;;;5.30;;
3149;SDS011;32503;47.748;8.960;2023-03-23T08:05:11;5.80;;;5.43;;
3149;SDS011;32503;47.748;8.960;2023-03-23T08:07:39;5.93;;;5.03;;
3149;SDS011;32503;47.748;8.960;2023-03-23T08:10:09;10.40;;;7.60;;
3149;SDS011;32503;47.748;8.960;2023-03-23T08:12:38;8.37;;;7.10;;
3149;SDS011;32503;47.748;8.960;2023-03-23T08:15:07;13.83;;;8.87;;
3149;SDS011;32503;47.748;8.960;2023-03-23T08:17:38;7.23;;;5.70;;
3149;SDS011;32503;47.748;8.960;2023-03-23T08:20:06;5.40;;;5.00;;
3149;SDS011;32503;47.748;8.960;2023-03-23T08:22:38;6.57;;;6.00;;
3149;SDS011;32503;47.748;8.960;2023-03-23T08:25:10;4.90;;;4.60;;
3149;SDS011;32503;47.748;8.960;2023-03-23T08:27:39;4.23;;;4.03;;
3149;SDS011;32503;47.748;8.960;2023-03-23T08:30:08;5.00;;;4.70;;
3149;SDS011;32503;47.748;8.960;2023-03-23T08:32:38;4.27;;;4.07;;
3149;SDS011;32503;47.748;8.960;2023-03-23T08:35:06;4.90;;;4.50;;
3149;SDS011;32503;47.748;8.960;2023-03-23T08:37:36;4.60;;;4.30;;
3149;SDS011;32503;47.748;8.960;2023-03-23T08:40:06;4.30;;;4.10;;
3149;SDS011;32503;47.748;8.960;2023-03-23T08:42:37;5.00;;;4.70;;
3149;SDS011;32503;47.748;8.960;2023-03-23T08:45:05;4.80;;;4.40;;
3149;SDS011;32503;47.748;8.960;2023-03-23T08:47:34;3.90;;;3.63;;
3149;SDS011;32503;47.748;8.960;2023-03-23T08:50:03;3.90;;;3.70;;
3149;SDS011;32503;47.748;8.960;2023-03-23T08:52:33;3.63;;;3.43;;
3149;SDS011;32503;47.748;8.960;2023-03-23T08:55:00;3.50;;;3.30;;
3149;SDS011;32503;47.748;8.960;2023-03-23T08:57:29;4.07;;;3.87;;
3149;SDS011;32503;47.748;8.960;2023-03-23T08:59:56;4.20;;;3.90;;
3149;SDS011;32503;47.748;8.960;2023-03-23T09:02:26;4.30;;;4.00;;
3149;SDS011;32503;47.748;8.960;2023-03-23T09:04:56;3.97;;;3.67;;
3149;SDS011;32503;47.748;8.960;2023-03-23T09:07:23;6.07;;;4.80;;
3149;SDS011;32503;47.748;8.960;2023-03-23T09:09:50;3.90;;;3.60;;
3149;SDS011;32503;47.748;8.960;2023-03-23T09:12:17;4.80;;;4.50;;
3149;SDS011;32503;47.748;8.960;2023-03-23T09:14:45;4.03;;;3.83;;
3149;SDS011;32503;47.748;8.960;2023-03-23T09:17:12;3.70;;;3.50;;
3149;SDS011;32503;47.748;8.960;2023-03-23T09:19:40;4.50;;;4.20;;
3149;SDS011;32503;47.748;8.960;2023-03-23T09:22:07;5.00;;;4.60;;
3149;SDS011;32503;47.748;8.960;2023-03-23T09:24:34;4.63;;;4.20;;
3149;SDS011;32503;47.748;8.960;2023-03-23T09:27:02;4.93;;;4.57;;
3149;SDS011;32503;47.748;8.960;2023-03-23T09:29:29;5.23;;;4.50;;
3149;SDS011;32503;47.748;8.960;2023-03-23T09:31:58;4.63;;;4.33;;
3149;SDS011;32503;47.748;8.960;2023-03-23T09:34:25;4.10;;;3.90;;
3149;SDS011;32503;47.748;8.960;2023-03-23T09:36:54;4.43;;;4.13;;
3149;SDS011;32503;47.748;8.960;2023-03-23T09:39:21;4.33;;;4.03;;
3149;SDS011;32503;47.748;8.960;2023-03-23T09:41:55;3.40;;;3.20;;
3149;SDS011;32503;47.748;8.960;2023-03-23T09:44:39;3.80;;;3.60;;
3149;SDS011;32503;47.748;8.960;2023-03-23T09:47:23;3.60;;;3.40;;
3149;SDS011;32503;47.748;8.960;2023-03-23T09:49:59;3.97;;;3.37;;
3149;SDS011;32503;47.748;8.960;2023-03-23T09:52:34;4.37;;;4.17;;
3149;SDS011;32503;47.748;8.960;2023-03-23T09:55:07;4.30;;;4.00;;
3149;SDS011;32503;47.748;8.960;2023-03-23T09:57:43;3.97;;;3.67;;
3149;SDS011;32503;47.748;8.960;2023-03-23T10:00:18;3.10;;;2.90;;
3149;SDS011;32503;47.748;8.960;2023-03-23T10:02:55;4.00;;;3.67;;
3149;SDS011;32503;47.748;8.960;2023-03-23T10:05:31;3.60;;;2.60;;
3149;SDS011;32503;47.748;8.960;2023-03-23T10:08:02;2.90;;;2.70;;
3149;SDS011;32503;47.748;8.960;2023-03-23T10:10:41;3.27;;;2.93;;
3149;SDS011;32503;47.748;8.960;2023-03-23T10:13:17;3.10;;;2.90;;
3149;SDS011;32503;47.748;8.960;2023-03-23T10:15:58;3.20;;;3.00;;
3149;SDS011;32503;47.748;8.960;2023-03-23T10:18:29;2.20;;;2.10;;
3149;SDS011;32503;47.748;8.960;2023-03-23T10:21:04;2.03;;;1.93;;
3149;SDS011;32503;47.748;8.960;2023-03-23T10:23:52;2.20;;;2.10;;
3149;SDS011;32503;47.748;8.960;2023-03-23T10:26:30;2.00;;;1.90;;
3149;SDS011;32503;47.748;8.960;2023-03-23T10:29:11;2.00;;;1.70;;
3149;SDS011;32503;47.748;8.960;2023-03-23T10:31:45;6.70;;;2.37;;
3149;SDS011;32503;47.748;8.960;2023-03-23T10:34:19;2.07;;;1.97;;
3149;SDS011;32503;47.748;8.960;2023-03-23T10:36:56;2.20;;;2.00;;
3149;SDS011;32503;47.748;8.960;2023-03-23T10:39:32;2.03;;;1.93;;
3149;SDS011;32503;47.748;8.960;2023-03-23T10:42:09;1.80;;;1.70;;
3149;SDS011;32503;47.748;8.960;2023-03-23T10:44:36;1.70;;;1.60;;
3149;SDS011;32503;47.748;8.960;2023-03-23T10:47:05;2.53;;;1.90;;
3149;SDS011;32503;47.748;8.960;2023-03-23T10:49:38;2.13;;;2.03;;
3149;SDS011;32503;47.748;8.960;2023-03-23T10:52:13;2.80;;;2.40;;
3149;SDS011;32503;47.748;8.960;2023-03-23T10:54:57;1.50;;;1.40;;
3149;SDS011;32503;47.748;8.960;2023-03-23T10:57:32;2.13;;;2.00;;
3149;SDS011;32503;47.748;8.960;2023-03-23T11:00:01;2.30;;;2.20;;
3149;SDS011;32503;47.748;8.960;2023-03-23T11:02:36;13.53;;;2.33;;
3149;SDS011;32503;47.748;8.960;2023-03-23T11:05:13;2.07;;;1.97;;
3149;SDS011;32503;47.748;8.960;2023-03-23T11:07:50;2.40;;;2.30;;
3149;SDS011;32503;47.748;8.960;2023-03-23T11:10:21;2.10;;;2.00;;
3149;SDS011;32503;47.748;8.960;2023-03-23T11:12:51;5.83;;;2.30;;
3149;SDS011;32503;47.748;8.960;2023-03-23T11:15:25;2.00;;;1.90;;
3149;SDS011;32503;47.748;8.960;2023-03-23T11:17:56;1.87;;;1.77;;
3149;SDS011;32503;47.748;8.960;2023-03-23T11:20:33;3.73;;;2.00;;
3149;SDS011;32503;47.748;8.960;2023-03-23T11:23:16;3.30;;;2.10;;
3149;SDS011;32503;47.748;8.960;2023-03-23T11:25:52;3.90;;;2.23;;
3149;SDS011;32503;47.748;8.960;2023-03-23T11:28:27;2.27;;;2.07;;
3149;SDS011;32503;47.748;8.960;2023-03-23T11:30:59;1.83;;;1.73;;
3149;SDS011;32503;47.748;8.960;2023-03-23T11:33:29;2.20;;;2.10;;
3149;SDS011;32503;47.748;8.960;2023-03-23T11:36:04;2.03;;;1.93;;
3149;SDS011;32503;47.748;8.960;2023-03-23T11:38:34;2.83;;;2.63;;
3149;SDS011;32503;47.748;8.960;2023-03-23T11:41:08;1.80;;;1.70;;
3149;SDS011;32503;47.748;8.960;2023-03-23T11:43:44;2.33;;;2.23;;
3149;SDS011;32503;47.748;8.960;2023-03-23T11:46:18;1.97;;;1.87;;
3149;SDS011;32503;47.748;8.960;2023-03-23T11:48:59;2.57;;;2.37;;
3149;SDS011;32503;47.748;8.960;2023-03-23T11:51:35;2.70;;;2.50;;
3149;SDS011;32503;47.748;8.960;2023-03-23T11:54:09;2.33;;;2.17;;
3149;SDS011;32503;47.748;8.960;2023-03-23T11:56:44;2.20;;;2.10;;
3149;SDS011;32503;47.748;8.960;2023-03-23T11:59:12;2.20;;;2.10;;
3149;SDS011;32503;47.748;8.960;2023-03-23T12:01:50;1.83;;;1.73;;
3149;SDS011;32503;47.748;8.960;2023-03-23T12:04:30;1.90;;;1.80;;
3149;SDS011;32503;47.748;8.960;2023-03-23T12:07:43;1.90;;;1.80;;
3149;SDS011;32503;47.748;8.960;2023-03-23T12:10:24;2.10;;;2.00;;
3149;SDS011;32503;47.748;8.960;2023-03-23T12:13:02;3.93;;;1.77;;
3149;SDS011;32503;47.748;8.960;2023-03-23T12:15:45;1.67;;;1.57;;
3149;SDS011;32503;47.748;8.960;2023-03-23T12:18:22;1.87;;;1.77;;
3149;SDS011;32503;47.748;8.960;2023-03-23T12:21:11;1.97;;;1.87;;
3149;SDS011;32503;47.748;8.960;2023-03-23T12:23:52;1.90;;;1.80;;
3149;SDS011;32503;47.748;8.960;2023-03-23T12:26:29;1.90;;;1.80;;
3149;SDS011;32503;47.748;8.960;2023-03-23T12:32:23;1.53;;;1.43;;
3149;SDS011;32503;47.748;8.960;2023-03-23T12:35:04;1.97;;;1.87;;
3149;SDS011;32503;47.748;8.960;2023-03-23T12:37:52;1.60;;;1.50;;
3149;SDS011;32503;47.748;8.960;2023-03-23T12:40:39;1.87;;;1.77;;
3149;SDS011;32503;47.748;8.960;2023-03-23T12:43:21;2.30;;;2.10;;
3149;SDS011;32503;47.748;8.960;2023-03-23T12:45:58;1.97;;;1.87;;
3149;SDS011;32503;47.748;8.960;2023-03-23T12:48:55;1.87;;;1.77;;
3149;SDS011;32503;47.748;8.960;2023-03-23T12:51:27;1.63;;;1.53;;
3149;SDS011;32503;47.748;8.960;2023-03-23T12:54:03;1.87;;;1.77;;
3149;SDS011;32503;47.748;8.960;2023-03-23T12:56:42;2.00;;;1.90;;
3149;SDS011;32503;47.748;8.960;2023-03-23T12:59:17;1.63;;;1.53;;
3149;SDS011;32503;47.748;8.960;2023-03-23T13:01:52;1.60;;;1.50;;
3149;SDS011;32503;47.748;8.960;2023-03-23T13:04:26;1.73;;;1.43;;
3149;SDS011;32503;47.748;8.960;2023-03-23T13:06:59;1.60;;;1.50;;
3149;SDS011;32503;47.748;8.960;2023-03-23T13:09:30;2.43;;;2.17;;
3149;SDS011;32503;47.748;8.960;2023-03-23T13:12:14;2.27;;;2.10;;
3149;SDS011;32503;47.748;8.960;2023-03-23T13:14:44;1.50;;;1.40;;
3149;SDS011;32503;47.748;8.960;2023-03-23T13:17:24;2.07;;;1.97;;
3149;SDS011;32503;47.748;8.960;2023-03-23T13:23:16;1.80;;;1.70;;
3149;SDS011;32503;47.748;8.960;2023-03-23T13:25:51;1.87;;;1.77;;
3149;SDS011;32503;47.748;8.960;2023-03-23T13:28:24;2.63;;;2.53;;
3149;SDS011;32503;47.748;8.960;2023-03-23T13:30:57;2.20;;;2.10;;
3149;SDS011;32503;47.748;8.960;2023-03-23T13:33:29;2.27;;;2.17;;
3149;SDS011;32503;47.748;8.960;2023-03-23T13:36:02;1.70;;;1.60;;
3149;SDS011;32503;47.748;8.960;2023-03-23T13:38:35;2.10;;;2.00;;
3149;SDS011;32503;47.748;8.960;2023-03-23T13:41:07;2.17;;;2.07;;
3149;SDS011;32503;47.748;8.960;2023-03-23T13:43:39;1.87;;;1.77;;
3149;SDS011;32503;47.748;8.960;2023-03-23T13:46:10;2.20;;;2.00;;
3149;SDS011;32503;47.748;8.960;2023-03-23T13:48:51;2.50;;;2.40;;
3149;SDS011;32503;47.748;8.960;2023-03-23T13:51:33;2.07;;;1.97;;
3149;SDS011;32503;47.748;8.960;2023-03-23T13:54:19;2.53;;;2.40;;
3149;SDS011;32503;47.748;8.960;2023-03-23T13:56:53;2.13;;;2.03;;
3149;SDS011;32503;47.748;8.960;2023-03-23T13:59:34;2.00;;;1.90;;
3149;SDS011;32503;47.748;8.960;2023-03-23T14:02:32;2.83;;;2.73;;
3149;SDS011;32503;47.748;8.960;2023-03-23T14:05:11;2.77;;;2.57;;
3149;SDS011;32503;47.748;8.960;2023-03-23T14:07:57;2.20;;;2.00;;
3149;SDS011;32503;47.748;8.960;2023-03-23T14:10:33;2.00;;;1.90;;
3149;SDS011;32503;47.748;8.960;2023-03-23T14:13:04;2.00;;;1.90;;
3149;SDS011;32503;47.748;8.960;2023-03-23T14:15:44;2.43;;;2.33;;
3149;SDS011;32503;47.748;8.960;2023-03-23T14:18:21;2.27;;;2.17;;
3149;SDS011;32503;47.748;8.960;2023-03-23T14:20:51;1.90;;;1.80;;
3149;SDS011;32503;47.748;8.960;2023-03-23T14:23:19;1.80;;;1.70;;
3149;SDS011;32503;47.748;8.960;2023-03-23T14:25:54;2.17;;;2.07;;
3149;SDS011;32503;47.748;8.960;2023-03-23T14:28:30;1.80;;;1.67;;
3149;SDS011;32503;47.748;8.960;2023-03-23T14:31:00;1.97;;;1.87;;
3149;SDS011;32503;47.748;8.960;2023-03-23T14:33:27;2.37;;;2.23;;
3149;SDS011;32503;47.748;8.960;2023-03-23T14:35:56;1.70;;;1.60;;
3149;SDS011;32503;47.748;8.960;2023-03-23T14:38:25;2.07;;;1.97;;
3149;SDS011;32503;47.748;8.960;2023-03-23T14:40:59;1.77;;;1.67;;
3149;SDS011;32503;47.748;8.960;2023-03-23T14:43:29;1.70;;;1.60;;
3149;SDS011;32503;47.748;8.960;2023-03-23T14:46:02;2.03;;;1.93;;
3149;SDS011;32503;47.748;8.960;2023-03-23T14:48:35;6.30;;;2.57;;
3149;SDS011;32503;47.748;8.960;2023-03-23T14:51:04;1.87;;;1.77;;
3149;SDS011;32503;47.748;8.960;2023-03-23T14:53:33;1.90;;;1.80;;
3149;SDS011;32503;47.748;8.960;2023-03-23T14:56:03;1.93;;;1.83;;
3149;SDS011;32503;47.748;8.960;2023-03-23T14:58:38;2.13;;;2.03;;
3149;SDS011;32503;47.748;8.960;2023-03-23T15:01:11;1.93;;;1.83;;
3149;SDS011;32503;47.748;8.960;2023-03-23T15:03:43;2.13;;;2.03;;
3149;SDS011;32503;47.748;8.960;2023-03-23T15:06:16;1.77;;;1.67;;
3149;SDS011;32503;47.748;8.960;2023-03-23T15:08:47;2.13;;;1.80;;
3149;SDS011;32503;47.748;8.960;2023-03-23T15:11:21;2.00;;;1.90;;
3149;SDS011;32503;47.748;8.960;2023-03-23T15:13:54;2.30;;;2.20;;
3149;SDS011;32503;47.748;8.960;2023-03-23T15:16:30;1.93;;;1.83;;
3149;SDS011;32503;47.748;8.960;2023-03-23T15:18:59;2.83;;;2.63;;
3149;SDS011;32503;47.748;8.960;2023-03-23T15:21:29;2.00;;;1.90;;
3149;SDS011;32503;47.748;8.960;2023-03-23T15:24:00;2.43;;;2.20;;
3149;SDS011;32503;47.748;8.960;2023-03-23T15:26:31;1.97;;;1.87;;
3149;SDS011;32503;47.748;8.960;2023-03-23T15:29:00;1.67;;;1.57;;
3149;SDS011;32503;47.748;8.960;2023-03-23T15:31:40;1.80;;;1.70;;
3149;SDS011;32503;47.748;8.960;2023-03-23T15:34:11;2.20;;;2.00;;
3149;SDS011;32503;47.748;8.960;2023-03-23T15:36:59;1.93;;;1.83;;
3149;SDS011;32503;47.748;8.960;2023-03-23T15:39:28;2.33;;;1.90;;
3149;SDS011;32503;47.748;8.960;2023-03-23T15:41:56;2.30;;;2.20;;